Latest Weather Observations for Pallamana

IDS60801

Issued at 8:02 am CDT Tuesday 23 December 2014 (issued every 30 minutes, with the page automatically refreshed every 10 minutes)

About weather observations | Map of weather stations | Latest weather observations for SA | Other Formats
Station Details ID: 024584 Name: PALLAMANA AERODROME Lat: -35.06 Lon: 139.23 Height: 45.0 m
Data from the previous 72 hours. | See also: Recent months at Pallamana
Date/Time
CDT
Temp
°C
App
Temp
°C
Dew
Point
Rel
Hum
%
Delta-T
°C
Wind Press
QNH
hPa
Press
MSL
hPa
Rain
since 9 am
mm
Dir
 
Spd
km/h
Gust
km/h
Spd
kts
Gust
kts
23/08:00am 18.0 15.3 14.7 81 1.9 SSW 22 30 12 16 1012.1 1011.9 0.2
23/07:30am 17.7 14.7 14.8 83 1.7 SSW 24 30 13 16 1011.7 1011.5 0.2
23/07:00am 17.4 15.3 15.3 87 1.2 SW 20 26 11 14 1011.4 1011.2 0.2
23/06:30am 17.3 14.8 15.2 87 1.2 SW 22 28 12 15 1010.9 1010.8 0.2
23/06:00am 17.1 15.1 15.4 90 1.0 SW 20 26 11 14 1010.4 1010.3 0.2
23/05:30am 17.0 14.3 15.5 91 0.9 SW 24 30 13 16 1010.3 1010.2 0.2
23/05:00am 17.2 14.5 15.7 91 0.9 SW 24 33 13 18 1010.1 1010.0 0.2
23/04:30am 17.8 16.4 16.6 93 0.7 SW 19 30 10 16 1009.8 1009.7 0.2
23/04:00am 17.9 17.7 16.6 92 0.8 SSW 13 19 7 10 1009.5 1009.4 0.2
23/03:30am 18.4 18.4 17.1 92 0.8 SSW 13 19 7 10 1009.6 1009.5 0.2
23/03:00am 18.5 19.6 17.0 91 0.9 SSW 7 11 4 6 1009.5 1009.4 0.2
23/02:30am 18.7 19.1 17.2 91 0.9 SSW 11 15 6 8 1009.5 1009.4 0.2
23/02:00am 18.5 19.1 16.8 90 1.0 SSW 9 9 5 5 1009.5 1009.4 0.2
23/01:30am 18.4 19.5 17.1 92 0.8 SSE 7 11 4 6 1009.4 1009.3 0.2
23/01:00am 18.5 19.7 17.4 93 0.7 SSE 7 9 4 5 1009.5 1009.4 0.2
23/12:30am 18.9 20.1 17.4 91 0.9 WSW 7 9 4 5 1009.6 1009.5 0.2
23/12:00am 18.8 19.2 17.3 91 0.9 WSW 11 13 6 7 1009.7 1009.6 0.2
 
Date/Time
CDT
Temp
°C
App
Temp
°C
Dew
Point
Rel
Hum
%
Delta-T
°C
Wind Press
QNH
hPa
Press
MSL
hPa
Rain
since 9 am
mm
Dir
 
Spd
km/h
Gust
km/h
Spd
kts
Gust
kts
22/11:30pm 19.1 19.5 17.3 89 1.1 WSW 11 13 6 7 1009.5 1009.4 0.2
22/11:00pm 19.1 19.1 17.3 89 1.1 WSW 13 15 7 8 1009.4 1009.3 0.2
22/10:30pm 19.1 19.4 17.1 88 1.2 WSW 11 13 6 7 1009.4 1009.3 0.2
22/10:00pm 19.3 20.0 17.0 86 1.4 WNW 9 13 5 7 1009.4 1009.3 0.2
22/09:30pm 19.5 20.2 17.0 85 1.5 W 9 13 5 7 1009.1 1009.0 0.2
22/09:00pm 19.4 19.4 17.3 88 1.3 WSW 13 15 7 8 1008.9 1008.8 0.2
22/08:30pm 19.8 20.7 17.5 86 1.4 WSW 9 11 5 6 1008.6 1008.5 0.2
22/08:00pm 20.2 22.0 17.3 83 1.8 W 4 7 2 4 1008.8 1008.7 0.2
22/07:30pm 19.8 19.9 17.4 86 1.5 ESE 13 17 7 9 1007.8 1007.7 0.2
22/07:00pm 19.6 20.0 17.3 86 1.4 SE 11 17 6 9 1008.5 1008.4 0.2
22/06:30pm 20.0 20.3 17.9 88 1.3 SSE 13 17 7 9 1008.7 1008.6 0.2
22/06:00pm 20.7 21.2 17.5 82 2.0 S 11 13 6 7 1008.8 1008.7 0.0
22/05:30pm 21.2 21.3 17.5 79 2.3 SSW 13 17 7 9 1008.4 1008.3 0.0
22/05:00pm 21.3 21.4 17.4 78 2.4 SW 13 15 7 8 1008.5 1008.4 0.0
22/04:30pm 20.5 20.7 17.6 83 1.8 WSW 13 19 7 10 1008.4 1008.3 0.0
22/04:00pm 20.2 19.5 17.4 84 1.7 S 17 22 9 12 1007.8 1007.7 0.0
22/03:30pm 19.9 18.7 17.1 84 1.7 SSE 19 24 10 13 1007.9 1007.8 0.0
22/03:00pm 20.4 19.5 16.8 80 2.2 SSE 17 24 9 13 1008.3 1008.2 0.0
22/02:30pm 21.1 20.7 16.3 74 2.9 SSW 13 19 7 10 1009.5 1009.4 0.0
22/02:00pm 21.7 21.0 16.3 71 3.3 SSW 15 20 8 11 1009.6 1009.5 0.0
22/01:30pm 22.3 19.1 15.3 64 4.2 SSW 26 32 14 17 1009.5 1009.4 0.0
22/01:00pm 23.2 20.1 14.4 57 5.2 SW 24 30 13 16 1009.5 1009.4 0.0
22/12:30pm 23.8 20.6 14.3 55 5.6 SW 24 32 13 17 1009.1 1009.0 0.0
22/12:00pm 23.2 22.0 14.0 56 5.4 W 13 20 7 11 1009.2 1009.1 0.0
22/11:30am 22.5 22.2 14.5 60 4.7 SSW 9 17 5 9 1008.8 1008.7 0.0
22/11:00am 21.9 20.5 14.4 62 4.4 WSW 15 26 8 14 1008.5 1008.4 0.0
22/10:30am 21.7 19.6 14.6 64 4.2 SW 19 26 10 14 1008.2 1008.1 0.0
22/10:00am 21.0 19.7 14.7 67 3.7 SW 15 19 8 10 1008.4 1008.3 0.0
22/09:30am 20.8 19.1 14.7 68 3.6 SW 17 22 9 12 1008.1 1008.0 0.0
22/09:00am 20.8 20.2 14.5 67 3.7 WSW 11 13 6 7 1008.2 1008.1 0.0
22/08:30am 20.3 19.0 14.7 70 3.3 WSW 15 19 8 10 1007.7 1007.6 0.0
22/08:00am 19.6 17.5 14.6 73 2.9 WSW 19 22 10 12 1007.8 1007.7 0.0
22/07:30am 18.7 16.0 14.6 77 2.4 WSW 22 28 12 15 1007.8 1007.7 0.0
22/07:00am 18.0 16.2 14.5 80 2.0 WSW 17 22 9 12 1007.6 1007.5 0.0
22/06:30am 17.6 15.2 14.5 82 1.8 WSW 20 24 11 13 1007.9 1007.8 0.0
22/06:00am 17.3 14.9 14.3 82 1.7 WSW 20 24 11 13 1007.7 1007.6 0.0
22/05:30am 17.3 14.0 14.0 81 1.9 WSW 24 32 13 17 1007.6 1007.5 0.0
22/05:00am 17.1 14.3 14.3 83 1.6 WSW 22 28 12 15 1007.8 1007.7 0.0
22/04:30am 17.1 13.9 14.3 83 1.6 WSW 24 30 13 16 1007.9 1007.8 0.0
22/04:00am 17.1 14.3 14.3 83 1.6 WSW 22 30 12 16 1007.9 1007.8 0.0
22/03:30am 17.3 15.1 14.5 83 1.6 WSW 19 26 10 14 1008.1 1008.0 0.0
22/03:00am 17.6 15.0 14.8 84 1.6 SW 22 28 12 15 1008.4 1008.3 0.0
22/02:30am 17.8 15.2 14.9 83 1.7 SW 22 35 12 19 1009.1 1009.0 0.0
22/02:00am 18.0 15.3 14.7 81 1.9 SW 22 30 12 16 1009.0 1008.9 0.0
22/01:30am 18.1 15.4 14.7 80 2.0 SW 22 32 12 17 1009.6 1009.5 0.0
22/01:00am 18.1 15.0 14.5 79 2.1 WSW 24 32 13 17 1009.9 1009.8 0.0
22/12:30am 18.4 13.2 14.4 77 2.3 SW 35 46 19 25 1009.9 1009.8 0.0
22/12:00am 18.9 13.2 14.2 74 2.7 WSW 37 52 20 28 1010.7 1010.6 0.0
 
Date/Time
CDT
Temp
°C
App
Temp
°C
Dew
Point
Rel
Hum
%
Delta-T
°C
Wind Press
QNH
hPa
Press
MSL
hPa
Rain
since 9 am
mm
Dir
 
Spd
km/h
Gust
km/h
Spd
kts
Gust
kts
21/11:30pm 19.4 14.0 13.8 70 3.2 SW 35 44 19 24 1009.9 1009.8 0.0
21/11:00pm 20.0 15.0 13.4 65 3.8 WSW 32 48 17 26 1010.1 1010.0 0.0
21/10:30pm 20.1 16.0 13.7 66 3.7 WSW 28 33 15 18 1010.6 1010.5 0.0
21/10:00pm 20.3 17.3 13.7 66 3.8 WSW 22 30 12 16 1010.7 1010.6 0.0
21/09:30pm 21.1 18.5 13.7 62 4.3 SW 20 28 11 15 1010.7 1010.6 0.0
21/09:00pm 21.9 19.1 13.2 57 5.0 SW 20 26 11 14 1010.2 1010.1 0.0
21/08:30pm 22.7 19.6 12.3 52 5.9 WSW 20 24 11 13 1010.3 1010.2 0.0
21/08:00pm 23.5 20.8 11.6 47 6.7 SW 17 20 9 11 1010.4 1010.3 0.0
21/07:30pm 24.3 20.6 11.6 45 7.2 SW 22 28 12 15 1010.4 1010.3 0.0
21/07:00pm 25.8 22.1 11.6 41 8.1 SW 22 28 12 15 1010.3 1010.2 0.0
21/06:30pm 26.1 21.4 10.6 37 8.7 SW 26 32 14 17 1010.0 1009.9 0.0
21/06:00pm 27.6 22.7 8.3 29 10.5 SSW 24 32 13 17 1010.0 1009.9 0.0
21/05:30pm 28.1 22.7 8.1 28 10.9 SSW 26 33 14 18 1010.0 1009.9 0.0
21/05:00pm 28.6 22.9 8.3 28 11.1 SSW 28 35 15 19 1009.9 1009.8 0.0
21/04:30pm 27.7 21.7 8.8 30 10.4 S 30 37 16 20 1010.2 1010.1 0.0
21/04:00pm 30.5 24.0 9.1 26 12.0 SSW 33 44 18 24 1010.3 1010.2 0.0
21/03:30pm 30.1 23.7 9.5 27 11.6 SSW 33 44 18 24 1010.3 1010.2 0.0
21/03:00pm 30.9 25.3 11.5 30 11.3 SSW 32 41 17 22 1010.2 1010.1 0.0
21/02:30pm 29.5 25.6 13.2 36 9.7 S 26 35 14 19 1010.6 1010.5 0.0
21/02:00pm 31.9 25.5 13.3 32 11.2 SSW 39 48 21 26 1010.4 1010.3 0.0
21/01:30pm 33.4 25.9 10.7 25 13.2 SSW 41 54 22 29 1010.3 1010.2 0.0
21/01:21pm 33.4 26.4 9.9 23 13.5 SSW 37 54 20 29 1010.4 1010.3 0.0
21/01:09pm 35.9 31.8 4.5 14 16.8 SSE 15 50 8 27 1010.4 1010.3 0.0
21/01:00pm 35.9 31.4 -0.6 10 18.0 W 13 22 7 12 1010.4 1010.3 0.0
21/12:30pm 37.1 32.0 -1.9 8 19.0 W 15 30 8 16 1010.6 1010.5 0.0
21/12:00pm 35.4 29.7 0.3 11 17.5 NW 20 28 11 15 1011.0 1010.9 0.0
21/11:30am 35.8 29.0 3.1 13 17.1 NNE 28 35 15 19 1011.1 1011.0 0.0
21/11:00am 34.8 27.2 3.0 13 16.5 NNE 32 41 17 22 1011.4 1011.2 0.0
21/10:30am 32.9 26.2 3.9 16 15.1 NNE 28 39 15 21 1011.8 1011.6 0.0
21/10:00am 30.6 25.0 5.3 20 13.3 NNE 24 33 13 18 1012.0 1011.8 0.0
21/09:30am 28.6 23.3 6.9 25 11.6 NNE 24 30 13 16 1012.3 1012.1 0.0
21/09:00am 25.9 21.7 8.3 32 9.5 NNE 20 26 11 14 1012.6 1012.4 0.0
21/08:30am 23.7 19.7 9.1 39 7.9 NNE 20 28 11 15 1012.9 1012.7 0.0
21/08:00am 20.8 18.5 10.5 51 5.6 N 13 17 7 9 1012.8 1012.6 0.0
21/07:30am 17.3 15.9 10.8 65 3.5 N 9 11 5 6 1012.8 1012.6 0.0
21/07:00am 14.1 12.3 9.4 73 2.4 N 9 11 5 6 1012.6 1012.4 0.0
21/06:30am 11.9 10.4 9.1 83 1.4 N 7 9 4 5 1012.4 1012.2 0.0
21/06:00am 10.0 9.1 7.7 86 1.1 NNW 2 6 1 3 1012.4 1012.2 0.0
21/05:30am 10.5 8.8 8.5 87 1.0 WSW 7 9 4 5 1012.4 1012.2 0.0
21/05:00am 10.8 10.5 8.6 86 1.1 CALM 0 0 0 0 1012.2 1012.0 0.0
21/04:30am 12.2 11.7 9.4 83 1.4 WNW 2 6 1 3 1012.3 1012.1 0.0
21/04:00am 12.4 12.2 9.2 81 1.6 CALM 0 0 0 0 1012.5 1012.3 0.0
21/03:30am 13.3 13.5 10.6 84 1.4 CALM 0 0 0 0 1012.6 1012.4 0.0
21/03:00am 13.5 13.6 10.2 80 1.7 CALM 0 4 0 2 1013.2 1013.0 0.0
21/02:30am 15.7 13.2 11.0 73 2.5 W 15 17 8 9 1013.7 1013.5 0.0
21/02:00am 15.4 13.4 11.5 77 2.1 W 13 15 7 8 1013.4 1013.2 0.0
21/01:30am 15.1 14.0 11.8 81 1.8 WSW 9 11 5 6 1013.6 1013.4 0.0
21/01:00am 14.9 12.9 11.6 80 1.8 WSW 13 17 7 9 1013.9 1013.7 0.0
21/12:30am 15.1 13.3 12.0 82 1.7 WSW 13 17 7 9 1014.2 1014.0 0.0
21/12:00am 15.8 14.1 12.5 81 1.8 SW 13 17 7 9 1014.4 1014.2 0.0
 
Date/Time
CDT
Temp
°C
App
Temp
°C
Dew
Point
Rel
Hum
%
Delta-T
°C
Wind Press
QNH
hPa
Press
MSL
hPa
Rain
since 9 am
mm
Dir
 
Spd
km/h
Gust
km/h
Spd
kts
Gust
kts
20/11:30pm 16.2 14.2 12.8 80 1.9 WSW 15 20 8 11 1014.7 1014.5 0.0
20/11:00pm 16.9 14.7 13.2 79 2.1 WSW 17 20 9 11 1015.2 1015.0 0.0
20/10:30pm 17.2 14.6 13.1 77 2.3 SW 19 24 10 13 1015.4 1015.2 0.0
20/10:00pm 17.6 14.8 13.2 75 2.5 WSW 20 26 11 14 1015.5 1015.3 0.0
20/09:30pm 18.2 15.5 12.9 71 3.0 SW 19 26 10 14 1015.4 1015.2 0.0
20/09:00pm 18.9 15.9 12.5 66 3.6 SW 20 30 11 16 1015.3 1015.1 0.0
20/08:30pm 20.1 16.2 12.2 60 4.4 SW 24 32 13 17 1014.9 1014.7 0.0
20/08:00pm 22.0 17.6 11.6 51 5.8 SSW 26 35 14 19 1014.5 1014.3 0.0
20/07:30pm 23.5 18.1 10.9 45 7.0 SSW 30 37 16 20 1014.3 1014.1 0.0
20/07:00pm 24.7 19.3 11.0 42 7.7 SSW 30 37 16 20 1014.0 1013.8 0.0
20/06:30pm 26.0 20.9 10.7 38 8.6 SSW 28 35 15 19 1013.9 1013.7 0.0
20/06:00pm 26.7 21.6 10.5 36 9.1 S 28 37 15 20 1013.6 1013.4 0.0
20/05:30pm 27.6 22.4 10.4 34 9.7 S 28 41 15 22 1013.6 1013.4 0.0
20/05:00pm 29.3 23.3 7.2 25 11.9 S 28 39 15 21 1013.7 1013.5 0.0
20/04:30pm 30.2 27.2 6.1 22 12.8 SSE 11 24 6 13 1014.1 1013.9 0.0
20/04:00pm 29.3 25.4 5.4 22 12.5 E 15 24 8 13 1014.4 1014.2 0.0
20/03:30pm 28.9 26.3 5.9 23 12.1 SSE 9 17 5 9 1014.9 1014.7 0.0
20/03:00pm 28.4 25.4 5.9 24 11.8 E 11 20 6 11 1015.5 1015.3 0.0
20/02:30pm 27.5 24.9 6.1 25 11.2 ENE 9 17 5 9 1016.1 1015.9 0.0
20/02:00pm 27.5 24.4 5.7 25 11.3 E 11 19 6 10 1016.7 1016.5 0.0
20/01:30pm 26.8 23.8 6.0 26 10.8 SSE 11 19 6 10 1017.3 1017.1 0.0
20/01:00pm 26.8 23.7 5.7 26 10.9 E 11 20 6 11 1017.8 1017.6 0.0
20/12:30pm 24.7 21.8 6.5 31 9.4 WSW 11 19 6 10 1018.2 1018.1 0.0
20/12:00pm 23.8 20.9 6.5 33 8.9 NNW 11 17 6 9 1018.7 1018.6 0.0
20/11:30am 23.0 20.6 7.2 36 8.2 ESE 9 15 5 8 1019.1 1019.0 0.0
20/11:00am 21.3 18.9 7.0 39 7.3 NNW 9 13 5 7 1019.4 1019.3 0.0
20/10:30am 20.8 18.0 6.8 40 7.1 ESE 11 17 6 9 1019.6 1019.5 0.0
20/10:00am 19.3 17.0 7.3 45 6.1 N 9 17 5 9 1020.1 1020.0 0.0
20/09:30am 18.7 16.0 7.4 47 5.7 NE 11 19 6 10 1020.6 1020.5 0.0
20/09:00am 17.6 14.6 7.5 51 5.1 NE 13 17 7 9 1020.7 1020.6 0.0
20/08:30am 16.7 15.1 8.7 59 4.1 NE 7 13 4 7 1020.7 1020.6 0.0

Other Formats:

Comma delimited format used in spreadsheet applications
http://www.bom.gov.au/fwo/IDS60801/IDS60801.95818.axf

JavaScript Object Notation format (JSON) in row-major order
http://www.bom.gov.au/fwo/IDS60801/IDS60801.95818.json